Time;durP1;ratioP1;P1;durP2;ratioP2;P2;SDS_P1;SDS_P2;PMS_P1;PMS_P2;Temp;Humidity;BMP_temperature;BMP_pressure;BME280_temperature;BME280_humidity;BME280_pressure;Samples;Min_cycle;Max_cycle;Signal;HPM_P1;HPM_P2
2023/01/23 00:01:49;;;;;;;44.53;16.30;;;;;;;1.52;73.87;101205.88;4996589;28;20337;-74
2023/01/23 00:04:14;;;;;;;45.15;17.02;;;;;;;1.50;73.68;101201.41;4997207;28;20447;-74
2023/01/23 00:06:40;;;;;;;40.03;15.57;;;;;;;1.50;73.24;101201.41;4997220;28;20030;-74
2023/01/23 00:09:06;;;;;;;43.17;13.93;;;;;;;1.47;73.21;101202.16;4996707;28;20053;-74
2023/01/23 00:11:32;;;;;;;40.72;15.05;;;;;;;1.48;73.05;101203.03;4996945;28;20034;-74
2023/01/23 00:13:59;;;;;;;43.25;16.70;;;;;;;1.49;73.39;101197.03;4997189;28;20036;-74
2023/01/23 00:16:27;;;;;;;46.30;16.23;;;;;;;1.50;72.76;101196.22;4996606;28;20030;-74
2023/01/23 00:18:53;;;;;;;44.85;15.73;;;;;;;1.49;73.92;101194.44;4996778;28;20034;-74
2023/01/23 00:21:22;;;;;;;37.05;15.68;;;;;;;1.46;72.12;101191.69;4996905;28;20053;-74
2023/01/23 00:23:53;;;;;;;45.50;16.17;;;;;;;1.50;73.30;101197.13;4997153;28;20033;-74
2023/01/23 00:26:21;;;;;;;46.72;14.95;;;;;;;1.52;72.92;101191.97;4996605;28;20487;-74
2023/01/23 00:28:47;;;;;;;46.63;15.43;;;;;;;1.51;73.72;101198.00;4986542;28;20105;-74
2023/01/23 00:31:16;;;;;;;45.15;15.65;;;;;;;1.50;73.58;101197.13;4995272;28;20069;-74
2023/01/23 00:33:43;;;;;;;40.45;14.77;;;;;;;1.51;73.75;101198.91;4996655;28;20030;-74
2023/01/23 00:36:10;;;;;;;37.78;14.77;;;;;;;1.53;73.93;101202.44;4998629;28;20032;-74
2023/01/23 00:38:35;;;;;;;39.40;15.13;;;;;;;1.56;73.62;101201.69;5000368;28;20061;-74
2023/01/23 00:41:02;;;;;;;40.93;14.70;;;;;;;1.53;73.03;101198.94;4999188;28;20117;-74
2023/01/23 00:43:28;;;;;;;45.22;15.57;;;;;;;1.55;73.77;101199.91;4999987;28;20037;-74
2023/01/23 00:45:53;;;;;;;39.17;15.47;;;;;;;1.55;73.66;101205.09;4998818;28;20521;-74
2023/01/23 00:48:19;;;;;;;42.63;15.85;;;;;;;1.57;73.11;101211.28;5000365;28;20022;-74
2023/01/23 00:50:45;;;;;;;40.50;15.00;;;;;;;1.56;73.23;101204.28;5000231;28;20084;-74
2023/01/23 00:53:11;;;;;;;40.78;15.75;;;;;;;1.53;73.18;101212.84;4999837;28;20446;-74
2023/01/23 00:55:37;;;;;;;41.78;14.30;;;;;;;1.53;73.51;101207.63;5000395;28;20038;-74
2023/01/23 00:58:03;;;;;;;40.95;15.07;;;;;;;1.53;73.71;101211.94;4999868;28;20030;-74
2023/01/23 01:00:28;;;;;;;34.13;14.10;;;;;;;1.55;73.50;101215.47;4999792;28;20030;-74
2023/01/23 01:02:54;;;;;;;35.10;14.10;;;;;;;1.57;73.92;101213.88;4999746;28;20030;-74
2023/01/23 01:05:19;;;;;;;41.87;16.43;;;;;;;1.59;73.81;101212.25;4999867;28;20018;-74
2023/01/23 01:07:45;;;;;;;41.47;14.55;;;;;;;1.58;73.61;101210.47;5000021;28;20442;-74
2023/01/23 01:10:11;;;;;;;44.47;15.33;;;;;;;1.59;73.17;101217.44;4999958;28;20033;-74
2023/01/23 01:12:37;;;;;;;40.45;14.55;;;;;;;1.58;73.70;101206.16;4999581;28;20077;-74
2023/01/23 01:15:03;;;;;;;41.63;15.73;;;;;;;1.58;73.46;101207.88;4999592;28;20042;-74
2023/01/23 01:17:29;;;;;;;53.83;16.48;;;;;;;1.59;73.41;101207.06;4998024;28;20022;-74
2023/01/23 01:19:54;;;;;;;38.40;14.60;;;;;;;1.57;73.30;101198.31;4999625;28;20034;-74
2023/01/23 01:22:20;;;;;;;41.10;15.37;;;;;;;1.55;72.97;101195.63;4998209;28;20026;-74
2023/01/23 01:24:45;;;;;;;43.93;15.03;;;;;;;1.57;73.59;101198.31;4999737;28;20348;-74
2023/01/23 01:27:11;;;;;;;48.93;15.90;;;;;;;1.57;73.82;101203.50;4997348;28;20022;-74
2023/01/23 01:29:36;;;;;;;44.67;15.03;;;;;;;1.55;73.67;101195.63;4990699;28;20062;-74
2023/01/23 01:32:02;;;;;;;43.92;16.00;;;;;;;1.56;73.25;101202.59;4999290;28;20039;-73
2023/01/23 01:34:27;;;;;;;43.60;15.80;;;;;;;1.58;73.11;101207.88;4999398;28;20034;-73
2023/01/23 01:36:53;;;;;;;42.90;15.83;;;;;;;1.56;73.11;101202.59;4999090;28;20061;-74
2023/01/23 01:39:18;;;;;;;46.80;17.20;;;;;;;1.56;73.35;101202.59;4999451;28;20479;-73
2023/01/23 01:41:44;;;;;;;35.10;14.50;;;;;;;1.56;72.96;101207.78;4999502;28;20475;-73
2023/01/23 01:44:17;;;;;;;36.07;14.37;;;;;;;1.56;73.05;101209.47;5014128;28;20077;-73
2023/01/23 01:46:44;;;;;;;37.25;15.65;;;;;;;1.58;73.38;101210.47;5013635;28;20022;-73
2023/01/23 01:49:09;;;;;;;37.38;15.40;;;;;;;1.60;73.89;101207.94;4999091;28;20038;-74
2023/01/23 01:51:42;;;;;;;39.10;14.30;;;;;;;1.60;73.14;101213.13;4998983;28;20422;-73
2023/01/23 01:54:17;;;;;;;46.28;15.73;;;;;;;1.57;72.23;101209.56;4999137;28;20030;-73
2023/01/23 01:56:52;;;;;;;41.28;15.23;;;;;;;1.55;72.68;101212.88;4997600;28;20487;-73
2023/01/23 01:59:20;;;;;;;37.73;14.47;;;;;;;1.56;73.53;101217.25;4997563;28;20117;-73
2023/01/23 02:01:50;;;;;;;40.25;15.20;;;;;;;1.56;73.70;101210.38;4998474;28;20034;-73
2023/01/23 02:04:16;;;;;;;40.67;13.55;;;;;;;1.56;73.17;101217.25;4998621;28;20030;-73
2023/01/23 02:06:42;;;;;;;36.03;13.25;;;;;;;1.57;73.63;101211.28;4998827;28;20027;-73
2023/01/23 02:09:21;;;;;;;43.17;14.85;;;;;;;1.58;73.33;101220.84;4997250;28;20062;-73
2023/01/23 02:11:48;;;;;;;42.30;14.77;;;;;;;1.59;73.25;101220.03;4998602;28;20157;-73
2023/01/23 02:14:13;;;;;;;39.88;14.57;;;;;;;1.58;73.76;101224.31;4998693;28;20026;-73
2023/01/23 02:16:45;;;;;;;41.97;15.50;;;;;;;1.57;73.11;101232.06;4998582;28;20036;-73
2023/01/23 02:19:21;;;;;;;52.95;16.10;;;;;;;1.53;73.17;101219.72;4998257;28;20040;-73
2023/01/23 02:21:55;;;;;;;46.97;16.30;;;;;;;1.53;73.52;101212.84;4998484;28;20030;-73
2023/01/23 02:24:50;;;;;;;40.92;15.75;;;;;;;1.53;72.88;101222.31;4998406;28;20034;-73
2023/01/23 02:27:15;;;;;;;53.75;17.50;;;;;;;1.59;74.00;101222.63;4994460;28;20022;-73
2023/01/23 02:29:43;;;;;;;42.23;15.20;;;;;;;1.58;73.92;101210.47;4987249;28;20033;-73
2023/01/23 02:32:09;;;;;;;41.03;15.70;;;;;;;1.57;73.45;101204.38;4998204;28;20052;-73
2023/01/23 02:34:36;;;;;;;41.53;15.30;;;;;;;1.55;73.17;101210.28;4998305;28;20109;-73
2023/01/23 02:37:03;;;;;;;43.20;15.82;;;;;;;1.52;73.42;101207.56;4998147;28;20089;-73
2023/01/23 02:39:28;;;;;;;46.20;17.20;;;;;;;1.50;72.97;101211.78;4998217;28;20542;-73
2023/01/23 02:41:55;;;;;;;40.80;15.13;;;;;;;1.47;73.51;101202.16;4998214;28;20466;-73
2023/01/23 02:44:25;;;;;;;62.03;17.10;;;;;;;1.46;73.16;101205.56;4998085;28;20431;-73
2023/01/23 02:46:55;;;;;;;43.70;15.77;;;;;;;1.47;74.04;101209.03;4997751;28;20109;-73
2023/01/23 02:49:21;;;;;;;48.92;16.33;;;;;;;1.47;73.61;101203.84;4997743;28;20026;-73
2023/01/23 02:51:48;;;;;;;47.75;16.52;;;;;;;1.48;73.83;101205.63;4997952;28;20084;-73
2023/01/23 02:54:14;;;;;;;51.65;16.45;;;;;;;1.48;73.69;101203.03;5005217;28;20030;-73
2023/01/23 02:56:41;;;;;;;51.10;16.45;;;;;;;1.48;73.33;101203.03;4996374;28;20061;-73
2023/01/23 03:02:08;;;;;;;55.40;16.75;;;;;;;1.45;73.82;101208.09;5015308;28;20087;-73
2023/01/23 03:04:34;;;;;;;52.97;15.98;;;;;;;1.44;73.61;101204.59;5001265;28;20030;-73
2023/01/23 03:06:59;;;;;;;39.07;15.00;;;;;;;1.45;73.32;101195.09;4997856;28;20034;-73
2023/01/23 03:09:25;;;;;;;47.70;17.73;;;;;;;1.46;74.05;101191.69;4997532;28;20206;-73
2023/01/23 03:11:51;;;;;;;41.00;14.90;;;;;;;1.49;73.29;101194.44;4997601;28;20018;-73
2023/01/23 03:14:19;;;;;;;41.42;15.57;;;;;;;1.48;73.40;101183.19;4997508;28;20037;-73
2023/01/23 03:16:49;;;;;;;38.33;14.80;;;;;;;1.49;73.42;101189.25;4997553;28;20054;-72
2023/01/23 03:19:15;;;;;;;39.42;14.07;;;;;;;1.49;73.30;101189.25;4997184;28;20395;-73
2023/01/23 03:21:40;;;;;;;40.90;14.55;;;;;;;1.50;73.51;101196.22;4997401;28;20080;-72
2023/01/23 03:24:08;;;;;;;38.53;14.63;;;;;;;1.51;73.55;101200.59;4997484;28;20026;-73
2023/01/23 03:26:33;;;;;;;38.55;15.07;;;;;;;1.50;73.52;101191.91;4997584;28;20026;-73
2023/01/23 03:31:43;;;;;;;39.08;14.68;;;;;;;1.51;73.17;101192.78;4997109;28;20114;-73
2023/01/23 03:34:08;;;;;;;40.22;15.32;;;;;;;1.52;74.15;101197.16;4997159;28;20058;-73
2023/01/23 03:36:36;;;;;;;39.40;14.93;;;;;;;1.50;73.68;101191.03;4995987;28;20029;-73
2023/01/23 03:41:47;;;;;;;36.70;14.20;;;;;;;1.50;74.11;101188.41;4997679;28;20042;-73
2023/01/23 03:44:13;;;;;;;38.10;14.95;;;;;;;1.48;73.18;101187.47;4997287;28;20030;-73
2023/01/23 03:46:38;;;;;;;40.73;15.70;;;;;;;1.48;73.24;101188.38;4996766;28;20447;-73
2023/01/23 03:49:04;;;;;;;36.27;13.97;;;;;;;1.50;73.94;101185.81;4997222;28;20026;-73
2023/01/23 03:51:29;;;;;;;40.10;15.98;;;;;;;1.49;73.65;101184.06;4997176;28;20072;-72
2023/01/23 03:53:54;;;;;;;37.57;15.10;;;;;;;1.48;73.51;101188.38;5000596;28;20041;-73
2023/01/23 03:56:20;;;;;;;38.83;14.70;;;;;;;1.49;73.86;101184.06;4997060;28;20553;-72
2023/01/23 03:58:45;;;;;;;44.90;15.87;;;;;;;1.51;73.21;101182.41;4997383;28;20388;-73
2023/01/23 04:01:12;;;;;;;39.60;14.73;;;;;;;1.49;73.29;101184.06;5010430;28;20098;-73
2023/01/23 04:03:37;;;;;;;37.67;14.30;;;;;;;1.46;73.75;101181.31;4996921;28;20022;-73
2023/01/23 04:06:03;;;;;;;40.73;15.37;;;;;;;1.46;73.60;101183.91;4997167;28;20037;-72
2023/01/23 04:08:28;;;;;;;38.70;14.95;;;;;;;1.49;73.78;101181.44;4997129;28;20415;-72
2023/01/23 04:11:01;;;;;;;38.87;15.57;;;;;;;1.46;73.37;101178.72;4998800;28;20545;-73
2023/01/23 04:13:27;;;;;;;38.17;15.43;;;;;;;1.47;73.61;101176.22;5000620;28;20050;-72
2023/01/23 04:15:53;;;;;;;36.50;15.03;;;;;;;1.44;73.35;101178.63;5000560;28;20065;-72
2023/01/23 04:18:18;;;;;;;43.63;15.90;;;;;;;1.40;73.43;101175.03;5000923;28;20018;-72
2023/01/23 04:20:43;;;;;;;39.70;13.80;;;;;;;1.39;72.97;101172.34;5000523;28;20030;-72
2023/01/23 04:23:09;;;;;;;39.97;15.13;;;;;;;1.37;73.81;101164.50;5000739;28;20089;-72
2023/01/23 04:25:34;;;;;;;35.63;14.63;;;;;;;1.39;73.92;101167.16;5000792;28;20037;-72
2023/01/23 04:28:00;;;;;;;42.57;15.33;;;;;;;1.38;73.71;101161.09;4992033;28;20026;-72
2023/01/23 04:30:25;;;;;;;37.67;14.93;;;;;;;1.40;73.79;101163.72;4998348;28;20033;-72
2023/01/23 04:32:50;;;;;;;39.13;15.50;;;;;;;1.38;73.38;101160.19;5000415;28;20455;-72
2023/01/23 04:35:16;;;;;;;38.27;14.23;;;;;;;1.38;73.64;101162.78;5000309;28;20023;-72
2023/01/23 04:37:41;;;;;;;36.70;14.37;;;;;;;1.37;73.62;101161.91;5000578;28;20026;-72
2023/01/23 04:40:09;;;;;;;38.47;14.63;;;;;;;1.38;73.85;101155.88;5000276;28;20387;-72
2023/01/23 04:42:34;;;;;;;34.88;13.40;;;;;;;1.38;73.47;101150.69;5000250;28;20124;-72
2023/01/23 04:44:59;;;;;;;42.07;15.03;;;;;;;1.40;73.49;101153.34;4998826;28;20105;-72
2023/01/23 04:47:25;;;;;;;37.45;14.77;;;;;;;1.42;73.49;101150.03;4999975;28;20109;-73
2023/01/23 04:49:50;;;;;;;37.00;14.37;;;;;;;1.42;73.96;101144.84;5000072;28;20042;-72
2023/01/23 04:52:16;;;;;;;38.47;13.50;;;;;;;1.42;73.47;101142.25;5000247;28;20022;-72
2023/01/23 04:54:41;;;;;;;40.50;14.50;;;;;;;1.41;73.76;101136.97;5000104;28;20049;-72
2023/01/23 04:57:08;;;;;;;39.33;15.23;;;;;;;1.41;73.79;101130.06;4999970;28;20097;-72
2023/01/23 04:59:33;;;;;;;39.45;14.27;;;;;;;1.38;73.73;101122.16;4999812;28;20032;-72
2023/01/23 05:02:01;;;;;;;37.27;14.40;;;;;;;1.37;73.57;101124.66;5000240;28;20026;-72
2023/01/23 05:04:26;;;;;;;35.28;14.23;;;;;;;1.38;73.57;101108.28;5000050;28;20022;-72
2023/01/23 05:06:52;;;;;;;37.20;14.83;;;;;;;1.36;73.49;101116.00;5000018;28;20031;-72
2023/01/23 05:09:17;;;;;;;35.83;14.10;;;;;;;1.39;73.68;101110.03;4999704;28;20145;-72
2023/01/23 05:11:42;;;;;;;40.37;14.57;;;;;;;1.36;73.52;101107.31;4999946;28;20089;-72
2023/01/23 05:14:08;;;;;;;40.97;16.33;;;;;;;1.36;73.46;101109.91;4999509;28;20257;-72
2023/01/23 05:16:34;;;;;;;35.17;14.07;;;;;;;1.36;73.14;101099.53;4998412;28;20400;-72
2023/01/23 05:18:59;;;;;;;40.08;15.30;;;;;;;1.34;73.19;101099.47;4999625;28;20033;-72
2023/01/23 05:21:24;;;;;;;37.57;14.17;;;;;;;1.32;73.03;101116.66;4999080;28;20041;-72
2023/01/23 05:23:50;;;;;;;37.77;13.60;;;;;;;1.33;73.64;101115.88;4997907;28;20026;-72
2023/01/23 05:26:15;;;;;;;35.53;13.20;;;;;;;1.34;73.30;101115.03;4999627;28;20102;-72
2023/01/23 05:28:40;;;;;;;38.90;14.43;;;;;;;1.33;73.38;101123.66;4989250;28;20018;-72
2023/01/23 05:31:06;;;;;;;36.78;14.98;;;;;;;1.33;73.46;101123.66;4998825;28;20058;-72
2023/01/23 05:33:31;;;;;;;40.03;14.53;;;;;;;1.28;73.23;101118.22;4999152;28;20030;-72
2023/01/23 05:36:00;;;;;;;39.10;15.10;;;;;;;1.28;73.89;101112.13;4998157;28;20399;-72
2023/01/23 05:38:26;;;;;;;38.45;14.15;;;;;;;1.26;73.22;101122.47;4999084;28;20030;-72
2023/01/23 05:40:51;;;;;;;38.13;15.23;;;;;;;1.21;72.39;101123.03;4999251;28;20032;-73
2023/01/23 05:43:17;;;;;;;40.00;14.97;;;;;;;1.21;73.48;101125.63;4999287;28;20434;-72
2023/01/23 05:45:42;;;;;;;39.53;14.93;;;;;;;1.19;73.85;101122.09;4999485;28;20018;-70
2023/01/23 05:48:08;;;;;;;35.67;15.20;;;;;;;1.20;73.89;101124.72;4998817;28;20798;-70
2023/01/23 05:50:33;;;;;;;39.30;14.60;;;;;;;1.21;74.05;101134.31;4990892;28;20101;-70
2023/01/23 05:52:59;;;;;;;38.57;15.63;;;;;;;1.22;73.47;101142.97;4997114;28;20553;-70
2023/01/23 05:55:24;;;;;;;39.83;14.10;;;;;;;1.23;73.93;101140.47;4998841;28;20384;-70
2023/01/23 05:57:50;;;;;;;39.70;15.27;;;;;;;1.23;73.96;101139.56;4998937;28;20773;-72
2023/01/23 06:00:16;;;;;;;40.07;15.80;;;;;;;1.19;72.93;101145.44;4998926;28;20082;-72
2023/01/23 06:02:41;;;;;;;42.00;16.17;;;;;;;1.19;73.92;101143.72;4998857;28;20022;-72
2023/01/23 06:05:08;;;;;;;41.00;15.70;;;;;;;1.20;73.26;101144.63;4998836;28;20028;-72
2023/01/23 06:07:33;;;;;;;46.40;15.57;;;;;;;1.22;73.59;101145.59;4998496;28;20056;-72
2023/01/23 06:09:59;;;;;;;36.40;14.53;;;;;;;1.23;73.71;101144.75;5013914;28;20038;-72
2023/01/23 06:12:24;;;;;;;37.60;15.40;;;;;;;1.24;73.16;101149.13;4998688;28;20084;-72
2023/01/23 06:14:50;;;;;;;39.78;14.30;;;;;;;1.24;73.79;101143.94;4998263;28;20030;-72
2023/01/23 06:17:15;;;;;;;38.33;15.93;;;;;;;1.24;73.88;101144.84;4998466;28;20145;-72
2023/01/23 06:19:41;;;;;;;40.50;15.13;;;;;;;1.21;73.72;101143.81;4998824;28;20439;-72
2023/01/23 06:22:06;;;;;;;35.80;14.25;;;;;;;1.22;73.08;101150.78;4998284;28;20066;-72
2023/01/23 06:24:32;;;;;;;38.00;15.37;;;;;;;1.20;73.80;101153.28;4985531;28;20030;-72
2023/01/23 06:26:57;;;;;;;37.43;14.10;;;;;;;1.19;73.81;101154.09;5013349;28;20058;-72
2023/01/23 06:29:23;;;;;;;40.63;15.03;;;;;;;1.19;73.25;101148.91;4987984;28;20661;-72
2023/01/23 06:31:48;;;;;;;43.88;15.32;;;;;;;1.22;74.18;101159.47;4997894;28;20084;-72
2023/01/23 06:34:14;;;;;;;37.93;15.20;;;;;;;1.23;73.47;101155.13;4997628;28;20092;-72
2023/01/23 06:36:40;;;;;;;42.50;16.03;;;;;;;1.24;73.90;101157.81;4998496;28;20507;-71
2023/01/23 06:39:07;;;;;;;39.87;15.13;;;;;;;1.26;73.98;101157.88;5013272;28;20258;-71
2023/01/23 06:41:32;;;;;;;37.03;15.25;;;;;;;1.27;73.67;101160.56;4997900;28;20494;-71
2023/01/23 06:43:57;;;;;;;40.47;15.73;;;;;;;1.28;73.43;101144.19;4998334;28;20030;-72
2023/01/23 06:46:23;;;;;;;36.67;14.00;;;;;;;1.31;73.44;101143.41;4997949;28;20022;-71
2023/01/23 06:48:49;;;;;;;35.57;14.70;;;;;;;1.32;73.25;101141.72;4997519;28;20513;-71
2023/01/23 06:51:15;;;;;;;35.13;13.30;;;;;;;1.27;73.66;101138.91;4998080;28;20026;-71
2023/01/23 06:53:40;;;;;;;39.13;15.33;;;;;;;1.27;73.99;101129.44;4997181;28;20639;-70
2023/01/23 06:56:07;;;;;;;45.43;16.13;;;;;;;1.27;73.64;101124.22;4997172;28;20022;-70
2023/01/23 06:58:33;;;;;;;37.42;15.45;;;;;;;1.29;73.61;101129.47;4997652;28;20026;-70
2023/01/23 07:01:06;;;;;;;43.03;16.85;;;;;;;1.30;73.69;101139.03;4996187;28;20042;-70
2023/01/23 07:03:32;;;;;;;39.78;15.45;;;;;;;1.32;73.53;101140.00;4997786;28;20030;-70
2023/01/23 07:06:01;;;;;;;37.87;14.90;;;;;;;1.28;73.70;101146.78;4997243;28;20483;-70
2023/01/23 07:08:27;;;;;;;41.33;15.52;;;;;;;1.32;73.93;101150.38;4997510;28;20058;-70
2023/01/23 07:10:53;;;;;;;38.03;15.02;;;;;;;1.33;73.93;101151.28;4991097;28;20450;-71
2023/01/23 07:13:18;;;;;;;35.50;14.77;;;;;;;1.33;73.41;101141.81;4997190;28;20033;-72
2023/01/23 07:15:45;;;;;;;41.50;15.77;;;;;;;1.34;73.91;101137.50;4996900;28;20030;-72
2023/01/23 07:18:11;;;;;;;38.13;14.70;;;;;;;1.34;73.95;101138.41;4997832;28;20431;-72
2023/01/23 07:20:37;;;;;;;41.72;16.10;;;;;;;1.32;73.76;101137.41;4997649;28;20033;-76
2023/01/23 07:23:02;;;;;;;38.73;15.70;;;;;;;1.35;73.82;101141.88;5000002;28;20890;-73
2023/01/23 07:25:29;;;;;;;37.15;13.90;;;;;;;1.37;73.96;101143.72;5001169;28;20026;-75
2023/01/23 07:27:54;;;;;;;37.83;13.97;;;;;;;1.37;73.73;101143.72;4993892;28;20031;-74
2023/01/23 07:30:20;;;;;;;39.47;15.85;;;;;;;1.39;73.46;101136.91;4994353;28;20119;-73
2023/01/23 07:32:45;;;;;;;39.60;14.60;;;;;;;1.40;73.65;101142.97;5002598;28;20037;-74
2023/01/23 07:35:11;;;;;;;40.27;16.43;;;;;;;1.38;73.92;101140.31;5003317;28;20030;-71
2023/01/23 07:37:36;;;;;;;37.28;14.82;;;;;;;1.40;74.33;101141.28;4983741;28;20030;-71
2023/01/23 07:40:02;;;;;;;41.43;15.73;;;;;;;1.41;73.67;101147.34;4996935;28;20034;-71
2023/01/23 07:42:30;;;;;;;38.30;14.77;;;;;;;1.42;73.56;101152.63;4998052;28;20039;-70
2023/01/23 07:44:56;;;;;;;40.90;15.00;;;;;;;1.43;73.27;101164.78;4993001;28;20030;-76
2023/01/23 07:47:21;;;;;;;39.93;15.37;;;;;;;1.44;73.59;101152.66;5001267;28;20054;-76
2023/01/23 07:49:47;;;;;;;37.47;14.83;;;;;;;1.45;73.38;101156.19;5001306;28;20502;-73
2023/01/23 07:52:12;;;;;;;37.90;15.27;;;;;;;1.46;73.66;101150.16;5002221;28;20742;-75
2023/01/23 07:54:37;;;;;;;38.03;14.37;;;;;;;1.46;73.38;101147.56;5006041;28;20018;-75
2023/01/23 07:57:03;;;;;;;38.47;15.63;;;;;;;1.46;73.88;101158.84;5000539;28;20034;-75
2023/01/23 07:59:28;;;;;;;41.97;15.77;;;;;;;1.47;73.76;101157.13;5015090;28;20141;-75
2023/01/23 08:01:54;;;;;;;38.72;14.43;;;;;;;1.45;73.71;101159.69;4999667;28;20018;-75
2023/01/23 08:04:19;;;;;;;34.17;14.23;;;;;;;1.48;73.28;101169.28;5001068;28;20494;-75
2023/01/23 08:06:45;;;;;;;36.77;14.80;;;;;;;1.46;73.94;101173.53;5000818;28;20383;-75
2023/01/23 08:09:11;;;;;;;42.95;15.82;;;;;;;1.47;73.91;101167.50;5000397;28;20133;-75
2023/01/23 08:11:37;;;;;;;35.70;14.97;;;;;;;1.31;71.63;101166.78;5001194;28;20033;-76
2023/01/23 08:14:02;;;;;;;40.97;15.10;;;;;;;1.43;73.33;101161.28;5000805;28;20081;-76
2023/01/23 08:16:28;;;;;;;44.67;16.70;;;;;;;1.47;74.04;101154.53;5014400;28;20023;-76
2023/01/23 08:18:53;;;;;;;40.03;16.10;;;;;;;1.49;74.09;101147.72;5015347;28;20022;-75
2023/01/23 08:21:19;;;;;;;35.85;16.30;;;;;;;1.52;74.19;101145.25;5000627;28;20117;-74
2023/01/23 08:23:45;;;;;;;37.13;14.93;;;;;;;1.50;73.95;101141.69;4999990;28;20033;-73
2023/01/23 08:26:13;;;;;;;42.50;15.90;;;;;;;1.52;73.48;101142.66;5000011;28;20025;-72
2023/01/23 08:28:39;;;;;;;37.42;14.27;;;;;;;1.53;73.31;101139.25;5000726;28;20022;-73
2023/01/23 08:31:07;;;;;;;36.93;15.20;;;;;;;1.56;73.48;101144.56;5000485;28;20030;-73
2023/01/23 08:33:33;;;;;;;34.70;13.43;;;;;;;1.57;74.23;101147.25;5000072;28;20026;-72
2023/01/23 08:35:59;;;;;;;36.67;14.90;;;;;;;1.59;73.65;101144.75;5000322;28;20050;-72
2023/01/23 08:38:25;;;;;;;44.40;15.63;;;;;;;1.63;74.20;101144.06;5000582;28;20026;-72
2023/01/23 08:40:54;;;;;;;36.33;14.83;;;;;;;1.64;73.50;101145.84;5000568;28;20092;-72
2023/01/23 08:43:19;;;;;;;37.45;15.00;;;;;;;1.66;74.10;101152.00;5000080;28;20022;-72
2023/01/23 08:45:51;;;;;;;40.53;15.38;;;;;;;1.64;73.71;101158.81;5000219;28;20360;-72
2023/01/23 08:48:16;;;;;;;39.80;15.30;;;;;;;1.68;73.48;101159.84;5000332;28;20026;-73
2023/01/23 08:50:42;;;;;;;39.23;15.03;;;;;;;1.68;73.13;101155.56;5000214;28;20033;-72
2023/01/23 08:53:07;;;;;;;35.87;13.37;;;;;;;1.69;73.36;101161.66;5022002;28;20076;-72
2023/01/23 08:55:34;;;;;;;41.40;16.02;;;;;;;1.69;73.02;101152.13;5000053;28;20058;-73
2023/01/23 08:58:01;;;;;;;36.87;13.97;;;;;;;1.72;73.96;101157.47;4998708;28;20081;-73
2023/01/23 09:00:26;;;;;;;35.40;14.30;;;;;;;1.76;73.96;101162.78;4999744;28;20029;-73
2023/01/23 09:02:52;;;;;;;34.47;14.25;;;;;;;1.80;73.68;101150.03;4998678;28;20113;-73
2023/01/23 09:05:17;;;;;;;37.70;15.10;;;;;;;1.86;73.29;101154.63;5000027;28;20033;-74
2023/01/23 09:07:43;;;;;;;38.67;15.73;;;;;;;1.90;73.80;101145.25;4999632;28;20082;-73
2023/01/23 09:10:09;;;;;;;35.87;14.80;;;;;;;1.96;73.94;101145.56;4999958;28;20033;-73
2023/01/23 09:12:35;;;;;;;34.83;14.18;;;;;;;1.98;73.49;101136.13;4999896;28;20054;-73
2023/01/23 09:15:00;;;;;;;34.60;14.63;;;;;;;1.99;73.04;101146.56;4999526;28;20061;-73
2023/01/23 09:17:26;;;;;;;37.07;15.13;;;;;;;1.91;72.33;101142.72;4999328;28;20018;-73
2023/01/23 09:19:52;;;;;;;36.85;14.77;;;;;;;1.95;73.27;101144.66;4999931;28;20164;-73
2023/01/23 09:22:18;;;;;;;37.85;15.07;;;;;;;1.99;73.85;101149.16;4999343;28;21024;-73
2023/01/23 09:24:44;;;;;;;33.10;13.63;;;;;;;2.01;73.27;101149.25;5014602;28;20084;-73
2023/01/23 09:27:10;;;;;;;37.25;14.73;;;;;;;2.05;73.25;101145.03;4997760;28;20022;-73
2023/01/23 09:29:35;;;;;;;38.23;14.70;;;;;;;2.10;73.38;101147.03;4990867;28;20045;-73
2023/01/23 09:32:02;;;;;;;33.90;13.50;;;;;;;2.13;73.79;101156.69;4999307;28;20018;-73
2023/01/23 09:34:28;;;;;;;35.15;14.57;;;;;;;2.14;73.60;101156.75;4999438;28;20395;-73
2023/01/23 09:36:53;;;;;;;35.40;14.10;;;;;;;2.18;73.39;101167.31;4999381;28;20034;-73
2023/01/23 09:39:19;;;;;;;34.13;14.75;;;;;;;2.19;73.82;101164.75;4999511;28;20081;-73
2023/01/23 09:41:46;;;;;;;35.60;14.18;;;;;;;2.20;73.02;101161.34;4999377;28;20422;-73
2023/01/23 09:44:15;;;;;;;32.87;14.07;;;;;;;2.21;73.11;101168.31;4999054;28;20451;-73
2023/01/23 09:47:05;;;;;;;32.80;13.93;;;;;;;2.15;71.49;101166.31;4999428;28;20026;-73
2023/01/23 09:49:57;;;;;;;35.13;15.75;;;;;;;2.14;71.64;101156.75;4999325;28;20026;-73
2023/01/23 09:52:33;;;;;;;36.88;15.07;;;;;;;2.13;72.32;101156.69;4991595;28;20024;-73
2023/01/23 09:55:29;;;;;;;36.40;14.25;;;;;;;2.10;73.13;101159.16;5001942;28;20089;-73
2023/01/23 09:57:56;;;;;;;37.87;14.97;;;;;;;2.11;73.68;101161.81;4999208;28;20029;-73
2023/01/23 10:00:30;;;;;;;38.63;15.73;;;;;;;2.13;73.02;101167.09;4998895;28;20390;-73
2023/01/23 10:02:57;;;;;;;46.63;17.58;;;;;;;2.16;73.96;101159.44;4998856;28;20120;-73
2023/01/23 10:06:01;;;;;;;48.50;19.60;;;;;;;2.15;72.53;101162.84;4999029;28;20113;-73
2023/01/23 10:08:56;;;;;;;49.08;17.95;;;;;;;2.17;72.48;101160.31;4996543;28;20045;-73
2023/01/23 10:11:33;;;;;;;36.83;14.73;;;;;;;2.19;73.00;101159.56;5006486;28;20030;-73
2023/01/23 10:14:08;;;;;;;37.65;15.52;;;;;;;2.22;73.04;101174.41;4998804;28;20030;-73
2023/01/23 10:17:07;;;;;;;35.28;14.63;;;;;;;2.17;72.81;101181.09;4998734;28;20045;-73
2023/01/23 10:20:07;;;;;;;37.08;14.30;;;;;;;2.19;73.20;101174.28;4997018;28;20114;-73
2023/01/23 10:22:37;;;;;;;35.40;14.27;;;;;;;2.20;73.67;101160.47;4998434;28;20109;-73
2023/01/23 10:25:23;;;;;;;37.37;14.60;;;;;;;2.22;72.94;101148.44;4998280;28;20502;-73
2023/01/23 10:27:50;;;;;;;35.33;15.05;;;;;;;2.27;73.25;101147.78;4995466;28;20076;-73
2023/01/23 10:30:33;;;;;;;37.42;15.20;;;;;;;2.26;72.88;101142.53;4997938;28;20034;-73
2023/01/23 10:33:18;;;;;;;36.63;14.68;;;;;;;2.31;73.08;101143.63;4998357;28;20121;-73
2023/01/23 10:35:54;;;;;;;34.05;14.75;;;;;;;2.36;73.75;101133.44;4997779;28;20042;-73
2023/01/23 10:38:32;;;;;;;34.00;14.20;;;;;;;2.34;73.18;101127.28;4998374;28;20070;-73
2023/01/23 10:41:13;;;;;;;40.05;15.73;;;;;;;2.35;73.45;101129.94;4998378;28;20026;-73
2023/01/23 10:43:46;;;;;;;36.40;15.65;;;;;;;2.36;73.30;101125.63;4997857;28;20113;-73
2023/01/23 10:46:13;;;;;;;39.67;16.98;;;;;;;2.38;74.16;101129.19;4998321;28;20022;-73
2023/01/23 10:48:50;;;;;;;35.67;15.00;;;;;;;2.36;73.34;101125.63;4998252;28;20146;-73
2023/01/23 10:51:30;;;;;;;35.93;14.70;;;;;;;2.36;72.58;101115.25;5013271;28;20089;-73
2023/01/23 10:54:19;;;;;;;35.83;14.68;;;;;;;2.36;72.29;101125.63;5000977;28;20109;-74
2023/01/23 10:56:54;;;;;;;34.92;14.13;;;;;;;2.36;73.47;101130.84;4997765;28;20499;-73
2023/01/23 10:59:32;;;;;;;35.60;15.32;;;;;;;2.38;73.38;101124.88;4997780;28;20483;-73
2023/01/23 11:02:01;;;;;;;35.33;14.63;;;;;;;2.39;73.74;101115.38;4997791;28;20026;-73
2023/01/23 11:04:30;;;;;;;36.17;14.47;;;;;;;2.39;73.91;101111.03;4997805;28;20443;-74
2023/01/23 11:07:02;;;;;;;35.00;14.70;;;;;;;2.37;73.28;101109.22;4997965;28;20018;-73
2023/01/23 11:09:29;;;;;;;35.63;14.57;;;;;;;2.37;73.10;101102.28;4997275;28;20510;-74
2023/01/23 11:11:59;;;;;;;34.40;14.55;;;;;;;2.35;73.49;101110.88;4997698;28;20034;-73
2023/01/23 11:14:25;;;;;;;36.72;13.98;;;;;;;2.37;73.82;101117.00;4997602;28;20026;-73
2023/01/23 11:17:13;;;;;;;38.70;14.60;;;;;;;2.36;73.40;101104.84;4997215;28;20037;-73
2023/01/23 11:19:40;;;;;;;38.00;14.85;;;;;;;2.42;73.66;101105.09;4995533;28;20026;-73
2023/01/23 11:22:30;;;;;;;35.90;15.63;;;;;;;2.40;72.13;101101.53;4997437;28;20038;-73
2023/01/23 11:24:56;;;;;;;36.75;15.85;;;;;;;2.44;74.18;101093.06;4996310;28;20030;-73
2023/01/23 11:27:29;;;;;;;37.35;15.88;;;;;;;2.44;73.00;101099.16;4997283;28;20038;-73
2023/01/23 11:30:07;;;;;;;39.08;16.33;;;;;;;2.46;72.73;101101.78;4997127;28;20065;-73